sensor_id;sensor_type;location;lat;lon;timestamp;temperature;humidity
66728;DHT22;53641;44.274;19.890;2022-11-20T00:01:33;11.40;99.90
66728;DHT22;53641;44.274;19.890;2022-11-20T00:03:59;11.40;99.90
66728;DHT22;53641;44.274;19.890;2022-11-20T00:06:26;11.40;99.90
66728;DHT22;53641;44.274;19.890;2022-11-20T00:08:54;11.30;99.90
66728;DHT22;53641;44.274;19.890;2022-11-20T00:11:22;11.40;99.90
66728;DHT22;53641;44.274;19.890;2022-11-20T00:13:49;11.20;99.90
66728;DHT22;53641;44.274;19.890;2022-11-20T00:16:17;11.10;99.90
66728;DHT22;53641;44.274;19.890;2022-11-20T00:18:43;10.60;99.90
66728;DHT22;53641;44.274;19.890;2022-11-20T00:21:18;10.10;99.90
66728;DHT22;53641;44.274;19.890;2022-11-20T00:23:44;10.10;99.90
66728;DHT22;53641;44.274;19.890;2022-11-20T00:26:12;10.30;99.90
66728;DHT22;53641;44.274;19.890;2022-11-20T00:28:42;10.20;99.90
66728;DHT22;53641;44.274;19.890;2022-11-20T00:31:10;10.30;99.90
66728;DHT22;53641;44.274;19.890;2022-11-20T00:33:36;10.40;99.90
66728;DHT22;53641;44.274;19.890;2022-11-20T00:36:07;10.40;99.90
66728;DHT22;53641;44.274;19.890;2022-11-20T00:38:34;10.50;99.90
66728;DHT22;53641;44.274;19.890;2022-11-20T00:41:01;10.60;99.90
66728;DHT22;53641;44.274;19.890;2022-11-20T00:43:28;10.60;99.90
66728;DHT22;53641;44.274;19.890;2022-11-20T00:45:58;10.50;99.90
66728;DHT22;53641;44.274;19.890;2022-11-20T00:48:24;10.60;99.90
66728;DHT22;53641;44.274;19.890;2022-11-20T00:50:50;10.70;99.90
66728;DHT22;53641;44.274;19.890;2022-11-20T00:53:16;10.80;99.90
66728;DHT22;53641;44.274;19.890;2022-11-20T00:55:41;10.80;99.90
66728;DHT22;53641;44.274;19.890;2022-11-20T00:58:07;11.00;99.90
66728;DHT22;53641;44.274;19.890;2022-11-20T01:00:33;11.00;99.90
66728;DHT22;53641;44.274;19.890;2022-11-20T01:02:59;11.10;99.90
66728;DHT22;53641;44.274;19.890;2022-11-20T01:05:25;11.10;99.90
66728;DHT22;53641;44.274;19.890;2022-11-20T01:07:51;11.20;99.90
66728;DHT22;53641;44.274;19.890;2022-11-20T01:10:17;11.20;99.90
66728;DHT22;53641;44.274;19.890;2022-11-20T01:13:02;11.10;99.90
66728;DHT22;53641;44.274;19.890;2022-11-20T01:15:48;11.10;99.90
66728;DHT22;53641;44.274;19.890;2022-11-20T01:18:14;11.10;99.90
66728;DHT22;53641;44.274;19.890;2022-11-20T01:20:39;11.20;99.90
66728;DHT22;53641;44.274;19.890;2022-11-20T01:23:05;11.20;99.90
66728;DHT22;53641;44.274;19.890;2022-11-20T01:25:31;11.30;99.90
66728;DHT22;53641;44.274;19.890;2022-11-20T01:27:56;11.30;99.90
66728;DHT22;53641;44.274;19.890;2022-11-20T01:30:22;11.40;99.90
66728;DHT22;53641;44.274;19.890;2022-11-20T01:32:48;11.40;99.90
66728;DHT22;53641;44.274;19.890;2022-11-20T01:35:14;11.40;99.90
66728;DHT22;53641;44.274;19.890;2022-11-20T01:37:40;11.40;99.90
66728;DHT22;53641;44.274;19.890;2022-11-20T01:40:06;11.40;99.90
66728;DHT22;53641;44.274;19.890;2022-11-20T01:42:32;11.40;99.90
66728;DHT22;53641;44.274;19.890;2022-11-20T01:46:01;11.50;99.90
66728;DHT22;53641;44.274;19.890;2022-11-20T01:48:26;11.50;99.90
66728;DHT22;53641;44.274;19.890;2022-11-20T01:50:54;11.60;99.90
66728;DHT22;53641;44.274;19.890;2022-11-20T01:53:25;11.60;99.90
66728;DHT22;53641;44.274;19.890;2022-11-20T01:55:55;11.60;99.90
66728;DHT22;53641;44.274;19.890;2022-11-20T01:58:27;11.60;99.90
66728;DHT22;53641;44.274;19.890;2022-11-20T02:00:53;11.70;99.90
66728;DHT22;53641;44.274;19.890;2022-11-20T02:03:20;11.60;99.90
66728;DHT22;53641;44.274;19.890;2022-11-20T02:06:04;11.60;99.90
66728;DHT22;53641;44.274;19.890;2022-11-20T02:08:34;11.60;99.90
66728;DHT22;53641;44.274;19.890;2022-11-20T02:11:00;11.50;99.90
66728;DHT22;53641;44.274;19.890;2022-11-20T02:13:26;11.50;99.90
66728;DHT22;53641;44.274;19.890;2022-11-20T02:16:19;11.60;99.90
66728;DHT22;53641;44.274;19.890;2022-11-20T02:18:45;11.60;99.90
66728;DHT22;53641;44.274;19.890;2022-11-20T02:21:24;11.60;99.90
66728;DHT22;53641;44.274;19.890;2022-11-20T02:24:01;11.60;99.90
66728;DHT22;53641;44.274;19.890;2022-11-20T02:26:30;11.70;99.90
66728;DHT22;53641;44.274;19.890;2022-11-20T02:28:56;11.60;99.90
66728;DHT22;53641;44.274;19.890;2022-11-20T02:31:23;11.60;99.90
66728;DHT22;53641;44.274;19.890;2022-11-20T02:33:54;11.60;99.90
66728;DHT22;53641;44.274;19.890;2022-11-20T02:36:20;11.70;99.90
66728;DHT22;53641;44.274;19.890;2022-11-20T02:38:46;11.70;99.90
66728;DHT22;53641;44.274;19.890;2022-11-20T02:41:13;11.70;99.90
66728;DHT22;53641;44.274;19.890;2022-11-20T02:43:39;11.70;99.90
66728;DHT22;53641;44.274;19.890;2022-11-20T02:46:07;11.70;99.90
66728;DHT22;53641;44.274;19.890;2022-11-20T02:48:32;11.60;99.90
66728;DHT22;53641;44.274;19.890;2022-11-20T02:50:58;11.70;99.90
66728;DHT22;53641;44.274;19.890;2022-11-20T02:53:24;11.70;99.90
66728;DHT22;53641;44.274;19.890;2022-11-20T02:55:50;11.60;99.90
66728;DHT22;53641;44.274;19.890;2022-11-20T02:58:15;11.70;99.90
66728;DHT22;53641;44.274;19.890;2022-11-20T03:00:41;11.70;99.90
66728;DHT22;53641;44.274;19.890;2022-11-20T03:03:07;11.60;99.90
66728;DHT22;53641;44.274;19.890;2022-11-20T03:05:33;11.70;99.90
66728;DHT22;53641;44.274;19.890;2022-11-20T03:07:58;11.80;99.90
66728;DHT22;53641;44.274;19.890;2022-11-20T03:10:24;11.70;99.90
66728;DHT22;53641;44.274;19.890;2022-11-20T03:12:56;11.70;99.90
66728;DHT22;53641;44.274;19.890;2022-11-20T03:15:23;11.70;99.90
66728;DHT22;53641;44.274;19.890;2022-11-20T03:17:49;11.70;99.90
66728;DHT22;53641;44.274;19.890;2022-11-20T03:20:14;11.60;99.90
66728;DHT22;53641;44.274;19.890;2022-11-20T03:22:40;11.60;99.90
66728;DHT22;53641;44.274;19.890;2022-11-20T03:25:06;11.50;99.90
66728;DHT22;53641;44.274;19.890;2022-11-20T03:27:33;11.50;99.90
66728;DHT22;53641;44.274;19.890;2022-11-20T03:29:59;11.50;99.90
66728;DHT22;53641;44.274;19.890;2022-11-20T03:32:25;11.60;99.90
66728;DHT22;53641;44.274;19.890;2022-11-20T03:34:51;11.60;99.90
66728;DHT22;53641;44.274;19.890;2022-11-20T03:37:17;11.60;99.90
66728;DHT22;53641;44.274;19.890;2022-11-20T03:39:43;11.60;99.90
66728;DHT22;53641;44.274;19.890;2022-11-20T03:42:09;11.60;99.90
66728;DHT22;53641;44.274;19.890;2022-11-20T03:44:55;11.60;99.90
66728;DHT22;53641;44.274;19.890;2022-11-20T03:47:21;11.70;99.90
66728;DHT22;53641;44.274;19.890;2022-11-20T03:49:47;11.60;99.90
66728;DHT22;53641;44.274;19.890;2022-11-20T03:52:12;11.50;99.90
66728;DHT22;53641;44.274;19.890;2022-11-20T03:54:38;11.60;99.90
66728;DHT22;53641;44.274;19.890;2022-11-20T03:57:04;11.50;99.90
66728;DHT22;53641;44.274;19.890;2022-11-20T03:59:30;11.50;99.90
66728;DHT22;53641;44.274;19.890;2022-11-20T04:01:56;11.40;99.90
66728;DHT22;53641;44.274;19.890;2022-11-20T04:04:21;11.40;99.90
66728;DHT22;53641;44.274;19.890;2022-11-20T04:06:47;11.40;99.90
66728;DHT22;53641;44.274;19.890;2022-11-20T04:09:13;11.50;99.90
66728;DHT22;53641;44.274;19.890;2022-11-20T04:11:40;11.40;99.90
66728;DHT22;53641;44.274;19.890;2022-11-20T04:14:11;11.50;99.90
66728;DHT22;53641;44.274;19.890;2022-11-20T04:16:38;11.50;99.90
66728;DHT22;53641;44.274;19.890;2022-11-20T04:19:06;11.40;99.90
66728;DHT22;53641;44.274;19.890;2022-11-20T04:21:34;11.40;99.90
66728;DHT22;53641;44.274;19.890;2022-11-20T04:24:00;11.50;99.90
66728;DHT22;53641;44.274;19.890;2022-11-20T04:26:27;11.50;99.90
66728;DHT22;53641;44.274;19.890;2022-11-20T04:28:54;11.40;99.90
66728;DHT22;53641;44.274;19.890;2022-11-20T04:31:21;11.50;99.90
66728;DHT22;53641;44.274;19.890;2022-11-20T04:33:48;11.50;99.90
66728;DHT22;53641;44.274;19.890;2022-11-20T04:36:25;11.50;99.90
66728;DHT22;53641;44.274;19.890;2022-11-20T04:38:52;11.50;99.90
66728;DHT22;53641;44.274;19.890;2022-11-20T04:41:20;11.50;99.90
66728;DHT22;53641;44.274;19.890;2022-11-20T04:43:47;11.50;99.90
66728;DHT22;53641;44.274;19.890;2022-11-20T04:46:14;11.40;99.90
66728;DHT22;53641;44.274;19.890;2022-11-20T04:48:40;11.50;99.90
66728;DHT22;53641;44.274;19.890;2022-11-20T04:51:06;11.50;99.90
66728;DHT22;53641;44.274;19.890;2022-11-20T04:53:32;11.60;99.90
66728;DHT22;53641;44.274;19.890;2022-11-20T04:56:02;11.60;99.90
66728;DHT22;53641;44.274;19.890;2022-11-20T04:58:28;11.30;99.90
66728;DHT22;53641;44.274;19.890;2022-11-20T05:01:00;11.00;99.90
66728;DHT22;53641;44.274;19.890;2022-11-20T05:03:26;11.00;99.90
66728;DHT22;53641;44.274;19.890;2022-11-20T05:05:51;11.00;99.90
66728;DHT22;53641;44.274;19.890;2022-11-20T05:08:17;10.90;99.90
66728;DHT22;53641;44.274;19.890;2022-11-20T05:10:43;10.90;99.90
66728;DHT22;53641;44.274;19.890;2022-11-20T05:13:09;11.00;99.90
66728;DHT22;53641;44.274;19.890;2022-11-20T05:15:34;11.00;99.90
66728;DHT22;53641;44.274;19.890;2022-11-20T05:18:00;11.10;99.90
66728;DHT22;53641;44.274;19.890;2022-11-20T05:20:26;11.10;99.90
66728;DHT22;53641;44.274;19.890;2022-11-20T05:22:52;11.10;99.90
66728;DHT22;53641;44.274;19.890;2022-11-20T05:25:17;11.10;99.90
66728;DHT22;53641;44.274;19.890;2022-11-20T05:27:43;11.10;99.90
66728;DHT22;53641;44.274;19.890;2022-11-20T05:30:09;11.20;99.90
66728;DHT22;53641;44.274;19.890;2022-11-20T05:32:35;11.10;99.90
66728;DHT22;53641;44.274;19.890;2022-11-20T05:35:01;10.80;99.90
66728;DHT22;53641;44.274;19.890;2022-11-20T05:37:27;10.80;99.90
66728;DHT22;53641;44.274;19.890;2022-11-20T05:39:52;10.60;99.90
66728;DHT22;53641;44.274;19.890;2022-11-20T05:42:18;10.70;99.90
66728;DHT22;53641;44.274;19.890;2022-11-20T05:44:57;10.60;99.90
66728;DHT22;53641;44.274;19.890;2022-11-20T05:47:23;10.50;99.90
66728;DHT22;53641;44.274;19.890;2022-11-20T05:49:49;10.60;99.90
66728;DHT22;53641;44.274;19.890;2022-11-20T05:52:15;10.70;99.90
66728;DHT22;53641;44.274;19.890;2022-11-20T05:54:41;10.70;99.90
66728;DHT22;53641;44.274;19.890;2022-11-20T05:57:06;10.80;99.90
66728;DHT22;53641;44.274;19.890;2022-11-20T05:59:32;10.90;99.90
66728;DHT22;53641;44.274;19.890;2022-11-20T06:01:58;11.00;99.90
66728;DHT22;53641;44.274;19.890;2022-11-20T06:04:24;10.90;99.90
66728;DHT22;53641;44.274;19.890;2022-11-20T06:06:49;10.90;99.90
66728;DHT22;53641;44.274;19.890;2022-11-20T06:09:15;10.90;99.90
66728;DHT22;53641;44.274;19.890;2022-11-20T06:11:41;11.00;99.90
66728;DHT22;53641;44.274;19.890;2022-11-20T06:14:07;11.00;99.90
66728;DHT22;53641;44.274;19.890;2022-11-20T06:16:32;11.10;99.90
66728;DHT22;53641;44.274;19.890;2022-11-20T06:18:58;11.10;99.90
66728;DHT22;53641;44.274;19.890;2022-11-20T06:21:24;11.10;99.90
66728;DHT22;53641;44.274;19.890;2022-11-20T06:23:52;11.10;99.90
66728;DHT22;53641;44.274;19.890;2022-11-20T06:26:23;11.10;99.90
66728;DHT22;53641;44.274;19.890;2022-11-20T06:28:49;11.20;99.90
66728;DHT22;53641;44.274;19.890;2022-11-20T06:31:18;11.20;99.90
66728;DHT22;53641;44.274;19.890;2022-11-20T06:33:44;11.20;99.90
66728;DHT22;53641;44.274;19.890;2022-11-20T06:36:12;11.10;99.90
66728;DHT22;53641;44.274;19.890;2022-11-20T06:38:38;11.10;99.90
66728;DHT22;53641;44.274;19.890;2022-11-20T06:41:05;11.20;99.90
66728;DHT22;53641;44.274;19.890;2022-11-20T06:43:31;11.30;99.90
66728;DHT22;53641;44.274;19.890;2022-11-20T06:45:58;11.20;99.90
66728;DHT22;53641;44.274;19.890;2022-11-20T06:48:25;11.20;99.90
66728;DHT22;53641;44.274;19.890;2022-11-20T06:50:51;11.20;99.90
66728;DHT22;53641;44.274;19.890;2022-11-20T06:53:17;11.20;99.90
66728;DHT22;53641;44.274;19.890;2022-11-20T06:55:44;11.30;99.90
66728;DHT22;53641;44.274;19.890;2022-11-20T06:58:10;11.30;99.90
66728;DHT22;53641;44.274;19.890;2022-11-20T07:00:36;11.30;99.90
66728;DHT22;53641;44.274;19.890;2022-11-20T07:03:09;11.30;99.90
66728;DHT22;53641;44.274;19.890;2022-11-20T07:05:36;11.30;99.90
66728;DHT22;53641;44.274;19.890;2022-11-20T07:08:02;11.40;99.90
66728;DHT22;53641;44.274;19.890;2022-11-20T07:10:28;11.40;99.90
66728;DHT22;53641;44.274;19.890;2022-11-20T07:12:54;11.50;99.90
66728;DHT22;53641;44.274;19.890;2022-11-20T07:15:24;11.50;99.90
66728;DHT22;53641;44.274;19.890;2022-11-20T07:17:50;11.50;99.90
66728;DHT22;53641;44.274;19.890;2022-11-20T07:20:16;11.50;99.90
66728;DHT22;53641;44.274;19.890;2022-11-20T07:22:42;11.50;99.90
66728;DHT22;53641;44.274;19.890;2022-11-20T07:25:09;11.50;99.90
66728;DHT22;53641;44.274;19.890;2022-11-20T07:27:35;11.50;99.90
66728;DHT22;53641;44.274;19.890;2022-11-20T07:30:01;11.50;99.90
66728;DHT22;53641;44.274;19.890;2022-11-20T07:32:27;11.50;99.90
66728;DHT22;53641;44.274;19.890;2022-11-20T07:34:53;11.60;99.90
66728;DHT22;53641;44.274;19.890;2022-11-20T07:37:19;11.60;99.90
66728;DHT22;53641;44.274;19.890;2022-11-20T07:39:44;11.50;99.90
66728;DHT22;53641;44.274;19.890;2022-11-20T07:42:13;11.50;99.90
66728;DHT22;53641;44.274;19.890;2022-11-20T07:44:39;11.50;99.90
66728;DHT22;53641;44.274;19.890;2022-11-20T07:47:04;11.50;99.90
66728;DHT22;53641;44.274;19.890;2022-11-20T07:49:30;11.50;99.90
66728;DHT22;53641;44.274;19.890;2022-11-20T07:51:56;11.50;99.90
66728;DHT22;53641;44.274;19.890;2022-11-20T07:54:22;11.60;99.90
66728;DHT22;53641;44.274;19.890;2022-11-20T07:56:49;11.60;99.90
66728;DHT22;53641;44.274;19.890;2022-11-20T07:59:15;11.60;99.90
66728;DHT22;53641;44.274;19.890;2022-11-20T08:01:41;11.60;99.90
66728;DHT22;53641;44.274;19.890;2022-11-20T08:04:07;11.70;99.90
66728;DHT22;53641;44.274;19.890;2022-11-20T08:06:33;11.60;99.90
66728;DHT22;53641;44.274;19.890;2022-11-20T08:08:59;11.70;99.90
66728;DHT22;53641;44.274;19.890;2022-11-20T08:11:25;11.80;99.90
66728;DHT22;53641;44.274;19.890;2022-11-20T08:14:10;11.80;99.90
66728;DHT22;53641;44.274;19.890;2022-11-20T08:16:40;11.70;99.90
66728;DHT22;53641;44.274;19.890;2022-11-20T08:19:06;11.70;99.90
66728;DHT22;53641;44.274;19.890;2022-11-20T08:21:32;11.80;99.90
66728;DHT22;53641;44.274;19.890;2022-11-20T08:23:58;11.80;99.90
66728;DHT22;53641;44.274;19.890;2022-11-20T08:26:25;11.80;99.90
66728;DHT22;53641;44.274;19.890;2022-11-20T08:28:55;11.70;99.90
66728;DHT22;53641;44.274;19.890;2022-11-20T08:31:22;11.70;99.90
66728;DHT22;53641;44.274;19.890;2022-11-20T08:33:48;11.70;99.90
66728;DHT22;53641;44.274;19.890;2022-11-20T08:36:14;11.70;99.90
66728;DHT22;53641;44.274;19.890;2022-11-20T08:38:40;11.70;99.90
66728;DHT22;53641;44.274;19.890;2022-11-20T08:41:06;11.60;99.90
66728;DHT22;53641;44.274;19.890;2022-11-20T08:43:54;11.70;99.90
66728;DHT22;53641;44.274;19.890;2022-11-20T08:46:21;11.60;99.90
66728;DHT22;53641;44.274;19.890;2022-11-20T08:48:47;11.60;99.90
66728;DHT22;53641;44.274;19.890;2022-11-20T08:51:13;11.60;99.90
66728;DHT22;53641;44.274;19.890;2022-11-20T08:53:39;11.60;99.90
66728;DHT22;53641;44.274;19.890;2022-11-20T08:56:06;11.70;99.90
66728;DHT22;53641;44.274;19.890;2022-11-20T08:58:32;11.70;99.90
66728;DHT22;53641;44.274;19.890;2022-11-20T09:00:57;11.70;99.90
66728;DHT22;53641;44.274;19.890;2022-11-20T09:03:23;11.70;99.90
66728;DHT22;53641;44.274;19.890;2022-11-20T09:06:03;11.80;99.90
66728;DHT22;53641;44.274;19.890;2022-11-20T09:08:30;11.80;99.90
66728;DHT22;53641;44.274;19.890;2022-11-20T09:10:56;11.80;99.90
66728;DHT22;53641;44.274;19.890;2022-11-20T09:13:24;11.70;99.90
66728;DHT22;53641;44.274;19.890;2022-11-20T09:15:55;11.80;99.90
66728;DHT22;53641;44.274;19.890;2022-11-20T09:18:21;11.70;99.90
66728;DHT22;53641;44.274;19.890;2022-11-20T09:20:47;11.80;99.90
66728;DHT22;53641;44.274;19.890;2022-11-20T09:23:14;11.60;99.90
66728;DHT22;53641;44.274;19.890;2022-11-20T09:25:40;11.70;99.90
66728;DHT22;53641;44.274;19.890;2022-11-20T09:28:09;11.70;99.90
66728;DHT22;53641;44.274;19.890;2022-11-20T09:30:35;11.60;99.90
66728;DHT22;53641;44.274;19.890;2022-11-20T09:33:01;11.60;99.90
66728;DHT22;53641;44.274;19.890;2022-11-20T09:35:26;11.60;99.90
66728;DHT22;53641;44.274;19.890;2022-11-20T09:37:52;11.60;99.90
66728;DHT22;53641;44.274;19.890;2022-11-20T09:40:26;11.70;99.90
66728;DHT22;53641;44.274;19.890;2022-11-20T09:43:07;11.70;99.90
66728;DHT22;53641;44.274;19.890;2022-11-20T09:45:48;11.80;99.90
66728;DHT22;53641;44.274;19.890;2022-11-20T09:48:23;11.70;99.90
66728;DHT22;53641;44.274;19.890;2022-11-20T09:50:57;11.60;99.90
66728;DHT22;53641;44.274;19.890;2022-11-20T09:53:35;11.60;99.90
66728;DHT22;53641;44.274;19.890;2022-11-20T09:56:10;11.70;99.90
66728;DHT22;53641;44.274;19.890;2022-11-20T09:58:41;11.70;99.90
66728;DHT22;53641;44.274;19.890;2022-11-20T10:01:15;11.80;99.90
66728;DHT22;53641;44.274;19.890;2022-11-20T10:03:57;11.80;99.90
66728;DHT22;53641;44.274;19.890;2022-11-20T10:06:30;11.80;99.90
66728;DHT22;53641;44.274;19.890;2022-11-20T10:09:21;11.80;99.90
66728;DHT22;53641;44.274;19.890;2022-11-20T10:11:55;11.70;99.90
66728;DHT22;53641;44.274;19.890;2022-11-20T10:14:36;11.60;99.90
66728;DHT22;53641;44.274;19.890;2022-11-20T10:17:23;11.70;99.90
66728;DHT22;53641;44.274;19.890;2022-11-20T10:20:27;11.80;99.90
66728;DHT22;53641;44.274;19.890;2022-11-20T10:23:09;11.60;99.90
66728;DHT22;53641;44.274;19.890;2022-11-20T10:25:47;11.60;99.90
66728;DHT22;53641;44.274;19.890;2022-11-20T10:28:35;11.50;99.90
66728;DHT22;53641;44.274;19.890;2022-11-20T10:31:14;11.50;99.90
66728;DHT22;53641;44.274;19.890;2022-11-20T10:33:42;11.50;99.90
66728;DHT22;53641;44.274;19.890;2022-11-20T10:36:30;11.60;99.90
66728;DHT22;53641;44.274;19.890;2022-11-20T10:39:04;11.50;99.90
66728;DHT22;53641;44.274;19.890;2022-11-20T10:41:40;11.40;99.90
66728;DHT22;53641;44.274;19.890;2022-11-20T10:44:21;11.60;99.90
66728;DHT22;53641;44.274;19.890;2022-11-20T10:47:14;11.50;99.90
66728;DHT22;53641;44.274;19.890;2022-11-20T10:49:41;11.60;99.90
66728;DHT22;53641;44.274;19.890;2022-11-20T10:52:32;11.60;99.90
66728;DHT22;53641;44.274;19.890;2022-11-20T10:55:15;11.60;99.90
66728;DHT22;53641;44.274;19.890;2022-11-20T10:57:52;11.60;99.90
66728;DHT22;53641;44.274;19.890;2022-11-20T11:00:21;11.60;99.90
66728;DHT22;53641;44.274;19.890;2022-11-20T11:02:52;11.50;99.90
66728;DHT22;53641;44.274;19.890;2022-11-20T11:05:29;11.50;99.90
66728;DHT22;53641;44.274;19.890;2022-11-20T11:07:58;11.50;99.90
66728;DHT22;53641;44.274;19.890;2022-11-20T11:10:35;11.50;99.90
66728;DHT22;53641;44.274;19.890;2022-11-20T11:13:02;11.50;99.90
66728;DHT22;53641;44.274;19.890;2022-11-20T11:15:40;11.40;99.90
66728;DHT22;53641;44.274;19.890;2022-11-20T11:18:10;11.50;99.90
66728;DHT22;53641;44.274;19.890;2022-11-20T11:20:37;11.50;99.90
66728;DHT22;53641;44.274;19.890;2022-11-20T11:23:03;11.40;99.90
66728;DHT22;53641;44.274;19.890;2022-11-20T11:25:31;11.50;99.90
66728;DHT22;53641;44.274;19.890;2022-11-20T11:28:18;11.50;99.90
66728;DHT22;53641;44.274;19.890;2022-11-20T11:30:45;11.50;99.90
66728;DHT22;53641;44.274;19.890;2022-11-20T11:33:18;11.60;99.90
66728;DHT22;53641;44.274;19.890;2022-11-20T11:36:17;11.60;99.90
66728;DHT22;53641;44.274;19.890;2022-11-20T11:38:44;11.60;99.90
66728;DHT22;53641;44.274;19.890;2022-11-20T11:41:17;11.40;99.90
66728;DHT22;53641;44.274;19.890;2022-11-20T11:44:00;11.40;99.90
66728;DHT22;53641;44.274;19.890;2022-11-20T11:46:53;11.40;99.90
66728;DHT22;53641;44.274;19.890;2022-11-20T11:49:20;11.30;99.90
66728;DHT22;53641;44.274;19.890;2022-11-20T11:52:14;11.30;99.90
66728;DHT22;53641;44.274;19.890;2022-11-20T11:54:53;11.40;99.90
66728;DHT22;53641;44.274;19.890;2022-11-20T11:57:28;11.30;99.90
66728;DHT22;53641;44.274;19.890;2022-11-20T12:00:03;11.30;99.90
66728;DHT22;53641;44.274;19.890;2022-11-20T12:02:49;11.30;99.90
66728;DHT22;53641;44.274;19.890;2022-11-20T12:05:25;11.30;99.90
66728;DHT22;53641;44.274;19.890;2022-11-20T12:08:18;11.30;99.90
66728;DHT22;53641;44.274;19.890;2022-11-20T12:10:55;11.30;99.90
66728;DHT22;53641;44.274;19.890;2022-11-20T12:13:40;11.20;99.90
66728;DHT22;53641;44.274;19.890;2022-11-20T12:16:14;11.20;99.90
66728;DHT22;53641;44.274;19.890;2022-11-20T12:18:41;11.10;99.90
66728;DHT22;53641;44.274;19.890;2022-11-20T12:21:31;11.20;99.90
66728;DHT22;53641;44.274;19.890;2022-11-20T12:24:09;11.10;99.90
66728;DHT22;53641;44.274;19.890;2022-11-20T12:26:59;11.00;99.90
66728;DHT22;53641;44.274;19.890;2022-11-20T12:30:08;11.10;99.90
66728;DHT22;53641;44.274;19.890;2022-11-20T12:32:42;11.10;99.90
66728;DHT22;53641;44.274;19.890;2022-11-20T12:35:46;11.00;99.90
66728;DHT22;53641;44.274;19.890;2022-11-20T12:38:51;11.10;99.90
66728;DHT22;53641;44.274;19.890;2022-11-20T12:41:46;11.10;99.90
66728;DHT22;53641;44.274;19.890;2022-11-20T12:48:08;10.90;99.90
66728;DHT22;53641;44.274;19.890;2022-11-20T12:51:09;10.90;99.90
66728;DHT22;53641;44.274;19.890;2022-11-20T12:53:44;10.90;99.90
66728;DHT22;53641;44.274;19.890;2022-11-20T12:56:28;10.80;99.90
66728;DHT22;53641;44.274;19.890;2022-11-20T12:59:33;10.90;99.90
66728;DHT22;53641;44.274;19.890;2022-11-20T13:02:22;11.00;99.90
66728;DHT22;53641;44.274;19.890;2022-11-20T13:05:01;11.10;99.90
66728;DHT22;53641;44.274;19.890;2022-11-20T13:07:30;11.10;99.90
66728;DHT22;53641;44.274;19.890;2022-11-20T13:09:59;11.20;99.90
66728;DHT22;53641;44.274;19.890;2022-11-20T13:12:34;11.10;99.90
66728;DHT22;53641;44.274;19.890;2022-11-20T13:15:35;11.20;99.90
66728;DHT22;53641;44.274;19.890;2022-11-20T13:18:07;11.20;99.90
66728;DHT22;53641;44.274;19.890;2022-11-20T13:20:35;11.20;99.90
66728;DHT22;53641;44.274;19.890;2022-11-20T13:23:01;11.10;99.90
66728;DHT22;53641;44.274;19.890;2022-11-20T13:25:29;11.00;99.90
66728;DHT22;53641;44.274;19.890;2022-11-20T13:27:57;11.10;99.90
66728;DHT22;53641;44.274;19.890;2022-11-20T13:30:25;11.20;99.90
66728;DHT22;53641;44.274;19.890;2022-11-20T13:32:57;11.10;99.90
66728;DHT22;53641;44.274;19.890;2022-11-20T13:35:29;11.10;99.90
66728;DHT22;53641;44.274;19.890;2022-11-20T13:38:07;11.10;99.90
66728;DHT22;53641;44.274;19.890;2022-11-20T13:40:56;11.10;99.90
66728;DHT22;53641;44.274;19.890;2022-11-20T13:43:44;11.20;99.90
66728;DHT22;53641;44.274;19.890;2022-11-20T13:46:10;11.10;99.90
66728;DHT22;53641;44.274;19.890;2022-11-20T13:48:46;11.00;99.90
66728;DHT22;53641;44.274;19.890;2022-11-20T13:51:35;11.10;99.90
66728;DHT22;53641;44.274;19.890;2022-11-20T13:54:28;11.00;99.90
66728;DHT22;53641;44.274;19.890;2022-11-20T13:57:25;11.00;99.90
66728;DHT22;53641;44.274;19.890;2022-11-20T13:59:58;10.90;99.90
66728;DHT22;53641;44.274;19.890;2022-11-20T14:02:28;11.00;99.90
66728;DHT22;53641;44.274;19.890;2022-11-20T14:04:58;10.80;99.90
66728;DHT22;53641;44.274;19.890;2022-11-20T14:07:32;10.70;99.90
66728;DHT22;53641;44.274;19.890;2022-11-20T14:10:00;10.80;99.90
66728;DHT22;53641;44.274;19.890;2022-11-20T14:12:31;10.80;99.90
66728;DHT22;53641;44.274;19.890;2022-11-20T14:14:58;10.80;99.90
66728;DHT22;53641;44.274;19.890;2022-11-20T14:17:31;10.90;99.90
66728;DHT22;53641;44.274;19.890;2022-11-20T14:20:00;10.90;99.90
66728;DHT22;53641;44.274;19.890;2022-11-20T14:22:27;10.90;99.90
66728;DHT22;53641;44.274;19.890;2022-11-20T14:25:18;10.90;99.90
66728;DHT22;53641;44.274;19.890;2022-11-20T14:27:54;10.80;99.90
66728;DHT22;53641;44.274;19.890;2022-11-20T14:30:23;10.60;99.90
66728;DHT22;53641;44.274;19.890;2022-11-20T14:32:51;10.80;99.90
66728;DHT22;53641;44.274;19.890;2022-11-20T14:35:29;10.60;99.90
66728;DHT22;53641;44.274;19.890;2022-11-20T14:37:55;10.80;99.90
66728;DHT22;53641;44.274;19.890;2022-11-20T14:40:27;10.80;99.90
66728;DHT22;53641;44.274;19.890;2022-11-20T14:42:54;10.80;99.90
66728;DHT22;53641;44.274;19.890;2022-11-20T14:45:21;10.80;99.90
66728;DHT22;53641;44.274;19.890;2022-11-20T14:47:48;10.50;99.90
66728;DHT22;53641;44.274;19.890;2022-11-20T14:50:19;10.50;99.90
66728;DHT22;53641;44.274;19.890;2022-11-20T14:53:06;10.60;99.90
66728;DHT22;53641;44.274;19.890;2022-11-20T14:55:34;10.50;99.90
66728;DHT22;53641;44.274;19.890;2022-11-20T14:58:05;10.40;99.90
66728;DHT22;53641;44.274;19.890;2022-11-20T15:00:33;10.30;99.90
66728;DHT22;53641;44.274;19.890;2022-11-20T15:02:59;10.40;99.90
66728;DHT22;53641;44.274;19.890;2022-11-20T15:05:43;10.40;99.90
66728;DHT22;53641;44.274;19.890;2022-11-20T15:08:10;10.50;99.90
66728;DHT22;53641;44.274;19.890;2022-11-20T15:10:38;10.40;99.90
66728;DHT22;53641;44.274;19.890;2022-11-20T15:13:13;10.30;99.90
66728;DHT22;53641;44.274;19.890;2022-11-20T15:15:46;10.30;99.90
66728;DHT22;53641;44.274;19.890;2022-11-20T15:18:15;10.30;99.90
66728;DHT22;53641;44.274;19.890;2022-11-20T15:20:41;10.40;99.90
66728;DHT22;53641;44.274;19.890;2022-11-20T15:23:16;10.30;99.90
66728;DHT22;53641;44.274;19.890;2022-11-20T15:25:44;10.40;99.90
66728;DHT22;53641;44.274;19.890;2022-11-20T15:28:20;10.40;99.90
66728;DHT22;53641;44.274;19.890;2022-11-20T15:30:47;10.40;99.90
66728;DHT22;53641;44.274;19.890;2022-11-20T15:33:14;10.40;99.90
66728;DHT22;53641;44.274;19.890;2022-11-20T15:35:40;10.40;99.90
66728;DHT22;53641;44.274;19.890;2022-11-20T15:38:06;10.40;99.90
66728;DHT22;53641;44.274;19.890;2022-11-20T15:40:40;10.40;99.90
66728;DHT22;53641;44.274;19.890;2022-11-20T15:43:06;10.40;99.90